Time;durP1;ratioP1;P1;durP2;ratioP2;P2;SDS_P1;SDS_P2;PMS_P1;PMS_P2;Temp;Humidity;BMP_temperature;BMP_pressure;BME280_temperature;BME280_humidity;BME280_pressure;Samples;Min_cycle;Max_cycle;Signal;HPM_P1;HPM_P2
2023/07/24 00:00:58;;;;;;;0.00;0.00;;;21.10;99.90;;;;;;7382410;19;20157;-78
2023/07/24 00:03:30;;;;;;;0.00;0.00;;;21.00;99.90;;;;;;7382789;19;20200;-77
2023/07/24 00:06:00;;;;;;;0.00;0.00;;;21.00;99.90;;;;;;7391034;19;20133;-76
2023/07/24 00:08:29;;;;;;;0.00;0.00;;;21.10;99.90;;;;;;7394940;19;20141;-76
2023/07/24 00:10:58;;;;;;;0.00;0.00;;;21.00;99.90;;;;;;7391896;19;20690;-76
2023/07/24 00:13:27;;;;;;;0.00;0.00;;;21.00;99.90;;;;;;7392211;19;20180;-78
2023/07/24 00:15:56;;;;;;;0.00;0.00;;;21.00;99.90;;;;;;7393164;19;20152;-77
2023/07/24 00:18:24;;;;;;;0.00;0.00;;;21.00;99.90;;;;;;7393148;19;20141;-76
2023/07/24 00:20:56;;;;;;;0.00;0.00;;;21.10;99.90;;;;;;7391039;19;20166;-77
2023/07/24 00:23:24;;;;;;;0.00;0.00;;;20.90;99.90;;;;;;7389545;19;20679;-77
2023/07/24 00:25:53;;;;;;;0.00;0.00;;;20.90;99.90;;;;;;7393787;19;20648;-77
2023/07/24 00:28:22;;;;;;;0.00;0.00;;;20.90;99.90;;;;;;7390896;19;20149;-77
2023/07/24 00:30:51;;;;;;;0.00;0.00;;;20.90;99.90;;;;;;7393361;19;20144;-76
2023/07/24 00:33:20;;;;;;;0.00;0.00;;;20.80;99.90;;;;;;7390196;19;20180;-76
2023/07/24 00:35:48;;;;;;;0.00;0.00;;;20.90;99.90;;;;;;7390822;19;20141;-76
2023/07/24 00:38:20;;;;;;;0.00;0.00;;;20.80;99.90;;;;;;7390319;19;20167;-77
2023/07/24 00:40:50;;;;;;;0.00;0.00;;;20.90;99.90;;;;;;7391116;19;20163;-76
2023/07/24 00:43:19;;;;;;;0.00;0.00;;;20.90;99.90;;;;;;7391440;19;20172;-76
2023/07/24 00:45:49;;;;;;;0.00;0.00;;;20.80;99.90;;;;;;7392911;19;20169;-76
2023/07/24 00:48:18;;;;;;;0.00;0.00;;;20.80;99.90;;;;;;7386820;19;20136;-76
2023/07/24 00:50:48;;;;;;;0.00;0.00;;;20.90;99.90;;;;;;7392367;19;20162;-76
2023/07/24 00:53:20;;;;;;;0.00;0.00;;;20.90;99.90;;;;;;7389910;19;20180;-76
2023/07/24 00:55:49;;;;;;;0.00;0.00;;;20.90;99.90;;;;;;7391923;19;20160;-77
2023/07/24 00:58:19;;;;;;;0.00;0.00;;;20.80;99.90;;;;;;7390306;19;20511;-75
2023/07/24 01:00:48;;;;;;;0.00;0.00;;;20.80;99.90;;;;;;7389419;19;20177;-77
2023/07/24 01:03:17;;;;;;;0.00;0.00;;;20.80;99.90;;;;;;7388333;19;20217;-76
2023/07/24 01:05:45;;;;;;;0.00;0.00;;;20.70;99.90;;;;;;7391974;19;20137;-75
2023/07/24 01:08:14;;;;;;;0.00;0.00;;;20.80;99.90;;;;;;7390510;19;20148;-76
2023/07/24 01:10:45;;;;;;;0.00;0.00;;;20.70;99.90;;;;;;7391795;19;20141;-76
2023/07/24 01:13:20;;;;;;;0.00;0.00;;;20.60;99.90;;;;;;7392966;19;20184;-78
2023/07/24 01:15:55;;;;;;;0.00;0.00;;;20.50;99.90;;;;;;7390537;19;20187;-79
2023/07/24 01:18:26;;;;;;;0.00;0.00;;;20.60;99.90;;;;;;7389885;19;20745;-77
2023/07/24 01:20:59;;;;;;;0.00;0.00;;;20.50;99.90;;;;;;7389963;19;20149;-77
2023/07/24 01:23:40;;;;;;;0.00;0.00;;;20.50;99.90;;;;;;7389742;19;20153;-76
2023/07/24 01:26:13;;;;;;;0.00;0.00;;;20.50;99.90;;;;;;7390793;19;20156;-76
2023/07/24 01:28:42;;;;;;;0.00;0.00;;;20.50;99.90;;;;;;7389319;19;20157;-76
2023/07/24 01:31:11;;;;;;;0.00;0.00;;;20.50;99.90;;;;;;7391860;19;20150;-76
2023/07/24 01:33:40;;;;;;;0.00;0.00;;;20.30;99.90;;;;;;7390860;19;20160;-77
2023/07/24 01:36:10;;;;;;;0.00;0.00;;;20.40;99.90;;;;;;7392262;19;20140;-76
2023/07/24 01:38:40;;;;;;;0.00;0.00;;;20.30;99.90;;;;;;7389185;19;20144;-76
2023/07/24 01:41:12;;;;;;;0.00;0.00;;;20.30;99.90;;;;;;7389964;19;20180;-77
2023/07/24 01:43:41;;;;;;;0.00;0.00;;;20.20;99.90;;;;;;7390787;19;20173;-76
2023/07/24 01:46:09;;;;;;;0.00;0.00;;;20.10;99.90;;;;;;7389964;19;20149;-76
2023/07/24 01:48:38;;;;;;;0.00;0.00;;;20.00;99.90;;;;;;7391219;19;20181;-77
2023/07/24 01:51:07;;;;;;;0.00;0.00;;;20.00;99.90;;;;;;7390442;19;20159;-78
2023/07/24 01:53:36;;;;;;;0.00;0.00;;;19.90;99.90;;;;;;7389045;19;20198;-76
2023/07/24 01:56:04;;;;;;;0.00;0.00;;;19.90;99.90;;;;;;7390645;19;20174;-77
2023/07/24 01:58:36;;;;;;;0.00;0.00;;;19.90;99.90;;;;;;7391493;19;20156;-77
2023/07/24 02:01:05;;;;;;;0.00;0.00;;;19.90;99.90;;;;;;7389583;19;20152;-77
2023/07/24 02:03:34;;;;;;;0.00;0.00;;;19.80;99.90;;;;;;7384951;19;20177;-77
2023/07/24 02:06:02;;;;;;;0.00;0.00;;;19.90;99.90;;;;;;7387033;19;20141;-77
2023/07/24 02:08:31;;;;;;;0.00;0.00;;;19.90;99.90;;;;;;7389761;19;20149;-76
2023/07/24 02:11:00;;;;;;;0.00;0.00;;;19.90;99.90;;;;;;7389276;19;20144;-78
2023/07/24 02:13:29;;;;;;;0.00;0.00;;;19.90;99.90;;;;;;7386916;19;20180;-77
2023/07/24 02:16:00;;;;;;;0.00;0.00;;;19.90;99.90;;;;;;7390816;19;20133;-76
2023/07/24 02:18:29;;;;;;;0.00;0.00;;;19.90;99.90;;;;;;7390010;19;20144;-77
2023/07/24 02:20:57;;;;;;;0.00;0.00;;;19.90;99.90;;;;;;7386882;19;20604;-76
2023/07/24 02:23:27;;;;;;;0.00;0.00;;;19.90;99.90;;;;;;7388704;19;20205;-76
2023/07/24 02:25:55;;;;;;;0.00;0.00;;;20.00;99.90;;;;;;7391024;19;20141;-76
2023/07/24 02:28:24;;;;;;;0.00;0.00;;;20.00;99.90;;;;;;7388083;19;20184;-75
2023/07/24 02:30:56;;;;;;;0.00;0.00;;;20.00;99.90;;;;;;7388177;19;20159;-76
2023/07/24 02:33:30;;;;;;;0.00;0.00;;;20.00;99.90;;;;;;7388449;19;20176;-76
2023/07/24 02:35:59;;;;;;;0.00;0.00;;;20.00;99.90;;;;;;7388183;19;20152;-79
2023/07/24 02:38:28;;;;;;;0.00;0.00;;;20.00;99.90;;;;;;7388597;19;20147;-77
2023/07/24 02:40:56;;;;;;;0.00;0.00;;;20.00;99.90;;;;;;7387966;19;20140;-77
2023/07/24 02:43:25;;;;;;;0.00;0.00;;;20.00;99.90;;;;;;7387743;19;20177;-77
2023/07/24 02:45:54;;;;;;;0.00;0.00;;;20.00;99.90;;;;;;7388508;19;20157;-77
2023/07/24 02:48:25;;;;;;;0.00;0.00;;;20.00;99.90;;;;;;7386067;19;20144;-76
2023/07/24 02:50:57;;;;;;;0.00;0.00;;;20.10;99.90;;;;;;7388659;19;20172;-77
2023/07/24 02:53:26;;;;;;;0.00;0.00;;;20.10;99.90;;;;;;7389362;19;20169;-76
2023/07/24 02:55:54;;;;;;;0.00;0.00;;;20.10;99.90;;;;;;7389185;19;20169;-76
2023/07/24 02:58:24;;;;;;;0.00;0.00;;;20.10;99.90;;;;;;7386983;19;20160;-77
2023/07/24 03:00:54;;;;;;;0.00;0.00;;;20.10;99.90;;;;;;7386587;19;20168;-75
2023/07/24 03:03:22;;;;;;;0.00;0.00;;;20.10;99.90;;;;;;7385709;19;20180;-76
2023/07/24 03:05:51;;;;;;;0.00;0.00;;;20.10;99.90;;;;;;7386941;19;20185;-76
2023/07/24 03:08:22;;;;;;;0.00;0.00;;;20.10;99.90;;;;;;7387871;19;20161;-75
2023/07/24 03:10:51;;;;;;;0.00;0.00;;;20.10;99.90;;;;;;7387930;19;20137;-76
2023/07/24 03:13:19;;;;;;;0.00;0.00;;;20.10;99.90;;;;;;7389552;19;20180;-76
2023/07/24 03:15:54;;;;;;;0.00;0.00;;;20.10;99.90;;;;;;7386349;19;20181;-76
2023/07/24 03:18:23;;;;;;;0.00;0.00;;;20.10;99.90;;;;;;7385227;19;20165;-76
2023/07/24 03:20:52;;;;;;;0.00;0.00;;;20.10;99.90;;;;;;7384649;19;20190;-75
2023/07/24 03:23:24;;;;;;;0.00;0.00;;;20.10;99.90;;;;;;7387338;19;20152;-76
2023/07/24 03:25:53;;;;;;;0.00;0.00;;;20.10;99.90;;;;;;7387147;19;20177;-76
2023/07/24 03:28:21;;;;;;;0.00;0.00;;;20.10;99.90;;;;;;7388953;19;20137;-75
2023/07/24 03:30:50;;;;;;;0.00;0.00;;;20.10;99.90;;;;;;7386854;19;20173;-76
2023/07/24 03:33:19;;;;;;;0.00;0.00;;;20.10;99.90;;;;;;7383693;19;20217;-75
2023/07/24 03:35:48;;;;;;;0.00;0.00;;;20.10;99.90;;;;;;7387790;19;20149;-76
2023/07/24 03:38:16;;;;;;;0.00;0.00;;;20.10;99.90;;;;;;7387028;19;20500;-77
2023/07/24 03:40:48;;;;;;;0.00;0.00;;;20.20;99.90;;;;;;7389813;19;20166;-76
2023/07/24 03:43:17;;;;;;;0.00;0.00;;;20.10;99.90;;;;;;7396055;19;20159;-76
2023/07/24 03:45:45;;;;;;;0.00;0.00;;;20.20;99.90;;;;;;7395621;19;20141;-77
2023/07/24 03:48:14;;;;;;;0.00;0.00;;;20.20;99.90;;;;;;7393752;19;20160;-76
2023/07/24 03:50:43;;;;;;;0.00;0.00;;;20.20;99.90;;;;;;7393226;19;20157;-77
2023/07/24 03:53:12;;;;;;;0.00;0.00;;;20.30;99.90;;;;;;7392455;19;20191;-76
2023/07/24 03:55:41;;;;;;;0.00;0.00;;;20.30;99.90;;;;;;7394368;19;20152;-76
2023/07/24 03:58:12;;;;;;;0.00;0.00;;;20.40;99.90;;;;;;7394700;19;20399;-76
2023/07/24 04:00:41;;;;;;;0.00;0.00;;;20.40;99.90;;;;;;7393419;19;20137;-76
2023/07/24 04:03:09;;;;;;;0.00;0.00;;;20.40;99.90;;;;;;7390187;19;20162;-76
2023/07/24 04:05:39;;;;;;;0.00;0.00;;;20.40;99.90;;;;;;7394144;19;20161;-76
2023/07/24 04:08:07;;;;;;;0.00;0.00;;;20.40;99.90;;;;;;7393826;19;20157;-76
2023/07/24 04:10:36;;;;;;;0.00;0.00;;;20.40;99.90;;;;;;7391761;19;20157;-77
2023/07/24 04:13:05;;;;;;;0.00;0.00;;;20.40;99.90;;;;;;7394928;19;20162;-76
2023/07/24 04:15:36;;;;;;;0.00;0.00;;;20.30;99.90;;;;;;7393255;19;20137;-75
2023/07/24 04:18:05;;;;;;;0.00;0.00;;;20.30;99.90;;;;;;7392790;19;20157;-76
2023/07/24 04:20:33;;;;;;;0.00;0.00;;;20.30;99.90;;;;;;7390635;19;20648;-76
2023/07/24 04:23:02;;;;;;;0.00;0.00;;;20.30;99.90;;;;;;7391538;19;20205;-78
2023/07/24 04:25:31;;;;;;;0.00;0.00;;;20.30;99.90;;;;;;7394499;19;20156;-77
2023/07/24 04:28:00;;;;;;;0.00;0.00;;;20.40;99.90;;;;;;7394894;19;20125;-81
2023/07/24 04:30:28;;;;;;;0.00;0.00;;;20.40;99.90;;;;;;7391511;19;20173;-78
2023/07/24 04:33:00;;;;;;;0.00;0.00;;;20.40;99.90;;;;;;7393128;19;20201;-83
2023/07/24 04:35:29;;;;;;;0.00;0.00;;;20.40;99.90;;;;;;7394867;19;20153;-82
2023/07/24 04:37:59;;;;;;;0.00;0.00;;;20.40;99.90;;;;;;7393739;19;20156;-82
2023/07/24 04:40:28;;;;;;;0.00;0.00;;;20.40;99.90;;;;;;7391956;19;20152;-82
2023/07/24 04:42:57;;;;;;;0.00;0.00;;;20.40;99.90;;;;;;7393716;19;20181;-82
2023/07/24 04:45:26;;;;;;;0.00;0.00;;;20.40;99.90;;;;;;7390000;19;20157;-81
2023/07/24 04:47:55;;;;;;;0.00;0.00;;;20.40;99.90;;;;;;7391888;19;20165;-79
2023/07/24 04:50:32;;;;;;;0.00;0.00;;;20.50;99.90;;;;;;7393911;19;20620;-84
2023/07/24 04:53:09;;;;;;;0.00;0.00;;;20.50;99.90;;;;;;7391863;19;20819;-82
2023/07/24 04:55:37;;;;;;;0.00;0.00;;;20.60;99.90;;;;;;7392106;19;20162;-84
2023/07/24 04:58:06;;;;;;;0.00;0.00;;;20.60;99.90;;;;;;7393180;19;20147;-84
2023/07/24 05:00:35;;;;;;;0.00;0.00;;;20.70;99.90;;;;;;7393968;19;20137;-85
2023/07/24 05:03:05;;;;;;;0.00;0.00;;;20.80;99.90;;;;;;7392633;19;20187;-84
2023/07/24 05:05:36;;;;;;;0.00;0.00;;;20.80;99.90;;;;;;7391275;19;20541;-84
2023/07/24 05:08:05;;;;;;;0.00;0.00;;;20.80;99.90;;;;;;7393817;19;20133;-84
2023/07/24 05:10:42;;;;;;;0.00;0.00;;;20.90;99.90;;;;;;7392181;19;20161;-85
2023/07/24 05:13:11;;;;;;;0.00;0.00;;;20.90;99.90;;;;;;7394074;19;20192;-80
2023/07/24 05:15:39;;;;;;;0.00;0.00;;;20.90;99.90;;;;;;7393303;19;20141;-74
2023/07/24 05:18:08;;;;;;;0.00;0.00;;;21.00;99.90;;;;;;7393445;19;20636;-76
2023/07/24 05:20:39;;;;;;;0.00;0.00;;;21.10;99.90;;;;;;7389561;19;20149;-76
2023/07/24 05:23:08;;;;;;;0.00;0.00;;;21.30;99.90;;;;;;7391455;19;20156;-76
2023/07/24 05:25:37;;;;;;;0.00;0.00;;;21.50;99.90;;;;;;7388253;19;20157;-75
2023/07/24 05:28:06;;;;;;;0.00;0.00;;;21.70;99.90;;;;;;7390241;19;20153;-75
2023/07/24 05:30:35;;;;;;;0.00;0.00;;;21.90;99.90;;;;;;7391412;19;20192;-75
2023/07/24 05:33:04;;;;;;;0.00;0.00;;;22.10;99.90;;;;;;7392862;19;20169;-77
2023/07/24 05:35:33;;;;;;;0.00;0.00;;;22.30;99.90;;;;;;7391641;19;20157;-76
2023/07/24 05:38:04;;;;;;;0.00;0.00;;;22.40;99.90;;;;;;7391319;19;20641;-77
2023/07/24 05:40:33;;;;;;;0.00;0.00;;;22.40;99.90;;;;;;7386973;19;20160;-76
2023/07/24 05:43:03;;;;;;;0.00;0.00;;;22.50;99.90;;;;;;7381698;19;20184;-76
2023/07/24 05:45:32;;;;;;;0.00;0.00;;;22.60;99.90;;;;;;7380154;19;20183;-76
2023/07/24 05:48:01;;;;;;;0.00;0.00;;;22.70;99.90;;;;;;7380974;19;20151;-76
2023/07/24 05:50:30;;;;;;;0.00;0.00;;;22.90;99.90;;;;;;7381042;19;20151;-75
2023/07/24 05:52:58;;;;;;;0.00;0.00;;;23.00;99.90;;;;;;7380240;19;20201;-77
2023/07/24 05:55:30;;;;;;;0.00;0.00;;;23.10;99.90;;;;;;7381656;19;20190;-76
2023/07/24 05:57:58;;;;;;;0.00;0.00;;;23.30;99.90;;;;;;7381099;19;20153;-75
2023/07/24 06:00:27;;;;;;;0.00;0.00;;;23.50;99.90;;;;;;7380981;19;20160;-76
2023/07/24 06:02:56;;;;;;;0.00;0.00;;;23.60;99.90;;;;;;7377994;19;20210;-76
2023/07/24 06:05:25;;;;;;;0.00;0.00;;;23.70;99.90;;;;;;7378710;19;20166;-77
2023/07/24 06:07:53;;;;;;;0.00;0.00;;;23.90;99.90;;;;;;7381531;19;20175;-76
2023/07/24 06:10:22;;;;;;;0.00;0.00;;;24.00;99.90;;;;;;7380000;19;20153;-76
2023/07/24 06:12:53;;;;;;;0.00;0.00;;;24.20;99.90;;;;;;7380512;19;20160;-77
2023/07/24 06:15:22;;;;;;;0.00;0.00;;;24.20;99.90;;;;;;7381281;19;20153;-76
2023/07/24 06:17:51;;;;;;;0.00;0.00;;;24.30;99.90;;;;;;7381773;19;20473;-77
2023/07/24 06:20:20;;;;;;;0.00;0.00;;;24.30;99.90;;;;;;7380503;19;20179;-76
2023/07/24 06:22:49;;;;;;;0.00;0.00;;;24.30;99.90;;;;;;7380559;19;20517;-77
2023/07/24 06:25:17;;;;;;;0.00;0.00;;;24.20;99.90;;;;;;7380908;19;20141;-76
2023/07/24 06:27:46;;;;;;;0.00;0.00;;;24.00;99.90;;;;;;7380544;19;20152;-76
2023/07/24 06:30:17;;;;;;;0.00;0.00;;;23.80;99.90;;;;;;7380520;19;20164;-77
2023/07/24 06:32:46;;;;;;;0.00;0.00;;;23.70;99.90;;;;;;7380192;19;20153;-76
2023/07/24 06:35:15;;;;;;;0.00;0.00;;;23.70;99.90;;;;;;7380423;19;20140;-76
2023/07/24 06:37:44;;;;;;;0.00;0.00;;;23.70;99.90;;;;;;7380226;19;20173;-77
2023/07/24 06:40:14;;;;;;;0.00;0.00;;;23.70;99.90;;;;;;7377688;19;20153;-76
2023/07/24 06:42:42;;;;;;;0.00;0.00;;;23.70;99.90;;;;;;7378704;19;20160;-76
2023/07/24 06:45:11;;;;;;;0.00;0.00;;;23.80;99.90;;;;;;7380289;19;20128;-76
2023/07/24 06:47:43;;;;;;;0.00;0.00;;;23.80;99.90;;;;;;7380011;19;20156;-77
2023/07/24 06:50:12;;;;;;;0.00;0.00;;;23.80;99.90;;;;;;7380370;19;20158;-77
2023/07/24 06:52:40;;;;;;;0.00;0.00;;;23.70;99.90;;;;;;7379144;19;20523;-77
2023/07/24 06:55:10;;;;;;;0.00;0.00;;;23.70;99.90;;;;;;7379032;19;20616;-77
2023/07/24 06:57:38;;;;;;;0.00;0.00;;;23.50;99.90;;;;;;7379588;19;20152;-77
2023/07/24 07:00:11;;;;;;;0.00;0.00;;;23.50;99.90;;;;;;7376548;19;20163;-77
2023/07/24 07:02:42;;;;;;;0.00;0.00;;;23.50;99.90;;;;;;7380578;19;20157;-76
2023/07/24 07:05:11;;;;;;;0.00;0.00;;;23.50;99.90;;;;;;7377020;19;20149;-76
2023/07/24 07:07:40;;;;;;;0.00;0.00;;;23.40;99.90;;;;;;7381019;19;20136;-77
2023/07/24 07:10:10;;;;;;;0.00;0.00;;;23.40;99.90;;;;;;7380031;19;20141;-76
2023/07/24 07:12:38;;;;;;;0.00;0.00;;;23.40;99.90;;;;;;7379459;19;20165;-76
2023/07/24 07:15:08;;;;;;;0.00;0.00;;;23.40;99.90;;;;;;7380242;19;20158;-77
2023/07/24 07:17:37;;;;;;;0.00;0.00;;;23.40;99.90;;;;;;7386743;19;20158;-76
2023/07/24 07:20:10;;;;;;;0.00;0.00;;;23.50;99.90;;;;;;7386109;19;20132;-76
2023/07/24 07:22:38;;;;;;;0.00;0.00;;;23.50;99.90;;;;;;7386799;19;20164;-78
2023/07/24 07:25:08;;;;;;;0.00;0.00;;;23.50;99.90;;;;;;7384540;19;20129;-77
2023/07/24 07:27:36;;;;;;;0.00;0.00;;;23.50;99.90;;;;;;7386729;19;20149;-77
2023/07/24 07:30:06;;;;;;;0.00;0.00;;;23.60;99.90;;;;;;7386019;19;20129;-76
2023/07/24 07:32:35;;;;;;;0.00;0.00;;;23.60;99.90;;;;;;7387544;19;20144;-76
2023/07/24 07:35:03;;;;;;;0.00;0.00;;;23.60;99.90;;;;;;7383945;19;20149;-76
2023/07/24 07:37:35;;;;;;;0.00;0.00;;;23.70;99.90;;;;;;7386125;19;20385;-76
2023/07/24 07:40:04;;;;;;;0.00;0.00;;;23.70;99.90;;;;;;7384950;19;20157;-76
2023/07/24 07:42:33;;;;;;;0.00;0.00;;;23.70;99.90;;;;;;7385413;19;20157;-77
2023/07/24 07:45:02;;;;;;;0.00;0.00;;;23.70;99.90;;;;;;7383910;19;20148;-77
2023/07/24 07:47:33;;;;;;;0.00;0.00;;;23.70;99.90;;;;;;7385904;19;20156;-77
2023/07/24 07:50:01;;;;;;;0.00;0.00;;;23.70;99.90;;;;;;7384146;19;20156;-76
2023/07/24 07:52:30;;;;;;;0.00;0.00;;;23.70;99.90;;;;;;7387414;19;20165;-76
2023/07/24 07:55:02;;;;;;;0.00;0.00;;;23.80;99.90;;;;;;7386172;19;20133;-77
2023/07/24 07:57:30;;;;;;;0.00;0.00;;;23.90;99.90;;;;;;7385411;19;20163;-76
2023/07/24 07:59:59;;;;;;;0.00;0.00;;;24.00;99.90;;;;;;7385903;19;20136;-76
2023/07/24 08:02:28;;;;;;;0.00;0.00;;;24.20;99.90;;;;;;7384740;19;20184;-77
2023/07/24 08:04:56;;;;;;;0.00;0.00;;;24.30;99.90;;;;;;7385975;19;20129;-77
2023/07/24 08:07:25;;;;;;;0.00;0.00;;;24.30;99.90;;;;;;7387460;19;20158;-76
2023/07/24 08:09:54;;;;;;;0.00;0.00;;;24.40;99.90;;;;;;7385791;19;20177;-76
2023/07/24 08:12:25;;;;;;;0.00;0.00;;;24.50;99.90;;;;;;7385013;19;20428;-77
2023/07/24 08:14:54;;;;;;;0.00;0.00;;;24.80;99.90;;;;;;7383482;19;20153;-76
2023/07/24 08:17:22;;;;;;;0.00;0.00;;;25.20;99.90;;;;;;7384552;19;20165;-77
2023/07/24 08:19:51;;;;;;;0.00;0.00;;;25.60;99.90;;;;;;7384998;19;20152;-76
2023/07/24 08:22:20;;;;;;;0.00;0.00;;;26.00;99.90;;;;;;7383816;19;20161;-77
2023/07/24 08:24:50;;;;;;;0.00;0.00;;;26.20;99.90;;;;;;7381501;19;20180;-77
2023/07/24 08:27:18;;;;;;;0.00;0.00;;;26.40;99.90;;;;;;7385073;19;20160;-75
2023/07/24 08:29:53;;;;;;;0.00;0.00;;;;;;;;;;7383691;19;20156;-77
2023/07/24 08:32:22;;;;;;;0.00;0.00;;;;;;;;;;7382888;19;20155;-77
2023/07/24 08:34:51;;;;;;;0.00;0.00;;;;;;;;;;7381735;19;20187;-77
2023/07/24 08:37:20;;;;;;;0.00;0.00;;;;;;;;;;7384851;19;20582;-76
2023/07/24 08:39:49;;;;;;;0.00;0.00;;;;;;;;;;7383806;19;20181;-77
2023/07/24 08:42:20;;;;;;;0.00;0.00;;;;;;;;;;7384899;19;20133;-77
2023/07/24 08:44:51;;;;;;;0.00;0.00;;;;;;;;;;7381751;19;20180;-76
2023/07/24 08:47:21;;;;;;;0.00;0.00;;;;;;;;;;7385056;19;20132;-77
2023/07/24 08:49:50;;;;;;;0.00;0.00;;;;;;;;;;7383044;19;20187;-77
2023/07/24 08:52:19;;;;;;;0.00;0.00;;;;;;;;;;7384697;19;20136;-77
2023/07/24 08:54:48;;;;;;;0.00;0.00;;;;;;;;;;7382102;19;20184;-77
2023/07/24 08:57:18;;;;;;;0.00;0.00;;;;;;;;;;7384110;19;20140;-77
2023/07/24 08:59:47;;;;;;;0.00;0.00;;;;;;;;;;7384526;19;20141;-76
2023/07/24 09:02:18;;;;;;;0.00;0.00;;;;;;;;;;7380214;19;20166;-76
2023/07/24 09:04:47;;;;;;;0.00;0.00;;;;;;;;;;7381386;19;20181;-76
2023/07/24 09:07:17;;;;;;;0.00;0.00;;;;;;;;;;7381779;19;20500;-77
2023/07/24 09:09:47;;;;;;;0.00;0.00;;;;;;;;;;7381519;19;20156;-73
2023/07/24 09:12:18;;;;;;;0.00;0.00;;;;;;;;;;7381135;19;20148;-73
2023/07/24 09:14:47;;;;;;;0.00;0.00;;;28.00;99.90;;;;;;7380363;19;20660;-75
2023/07/24 09:17:18;;;;;;;0.00;0.00;;;28.00;99.90;;;;;;7381682;19;20628;-75
2023/07/24 09:19:47;;;;;;;0.00;0.00;;;28.10;99.90;;;;;;7381804;19;20177;-72
2023/07/24 09:22:20;;;;;;;0.00;0.00;;;28.10;99.90;;;;;;7380385;19;20691;-73
2023/07/24 09:24:53;;;;;;;0.00;0.00;;;28.20;99.90;;;;;;7380190;19;20184;-74
2023/07/24 09:27:22;;;;;;;0.00;0.00;;;28.30;99.90;;;;;;7381028;19;20145;-75
2023/07/24 09:29:51;;;;;;;0.00;0.00;;;28.40;99.90;;;;;;7382373;19;20158;-73
2023/07/24 09:32:27;;;;;;;0.00;0.00;;;28.40;99.90;;;;;;7382367;19;20145;-74
2023/07/24 09:34:57;;;;;;;0.00;0.00;;;28.20;99.90;;;;;;7384301;19;20161;-77
2023/07/24 09:37:29;;;;;;;0.00;0.00;;;28.00;99.90;;;;;;7383216;19;20166;-77
2023/07/24 09:39:58;;;;;;;0.00;0.00;;;27.80;99.90;;;;;;7380800;19;20153;-76
2023/07/24 09:42:34;;;;;;;0.00;0.00;;;27.50;99.90;;;;;;7381957;19;20153;-78
2023/07/24 09:45:03;;;;;;;0.00;0.00;;;27.20;99.90;;;;;;7382075;19;20153;-77
2023/07/24 09:47:34;;;;;;;0.00;0.00;;;27.00;99.90;;;;;;7382187;19;20181;-76
2023/07/24 09:50:06;;;;;;;0.00;0.00;;;26.70;99.90;;;;;;7380437;19;20159;-76
2023/07/24 09:52:36;;;;;;;0.00;0.00;;;26.60;99.90;;;;;;7383201;19;20147;-74
2023/07/24 09:55:13;;;;;;;0.00;0.00;;;26.50;99.90;;;;;;7379920;19;20649;-75
2023/07/24 09:57:42;;;;;;;0.00;0.00;;;26.40;99.90;;;;;;7381675;19;20164;-74
2023/07/24 10:00:14;;;;;;;0.00;0.00;;;26.40;99.90;;;;;;7378680;19;20152;-75
2023/07/24 10:02:47;;;;;;;0.00;0.00;;;26.50;99.90;;;;;;7380360;19;20156;-76
2023/07/24 10:05:16;;;;;;;0.00;0.00;;;26.40;99.90;;;;;;7380791;19;20137;-76
2023/07/24 10:07:48;;;;;;;0.00;0.00;;;26.50;99.90;;;;;;7381440;19;20133;-76
2023/07/24 10:10:18;;;;;;;0.00;0.00;;;26.60;99.90;;;;;;7379981;19;20148;-75
2023/07/24 10:12:47;;;;;;;0.00;0.00;;;26.90;99.90;;;;;;7381117;19;20139;-75
2023/07/24 10:15:16;;;;;;;0.00;0.00;;;27.10;99.90;;;;;;7380613;19;20165;-74
2023/07/24 10:17:48;;;;;;;0.00;0.00;;;27.00;99.90;;;;;;7379579;19;20545;-75
2023/07/24 10:20:19;;;;;;;0.00;0.00;;;26.90;99.90;;;;;;7378517;19;20202;-75
2023/07/24 10:22:48;;;;;;;0.00;0.00;;;26.60;99.90;;;;;;7381705;19;20148;-73
2023/07/24 10:25:16;;;;;;;0.00;0.00;;;26.20;99.90;;;;;;7378373;19;20148;-74
2023/07/24 10:27:46;;;;;;;0.00;0.00;;;25.80;99.90;;;;;;7379969;19;20160;-75
2023/07/24 10:30:15;;;;;;;0.00;0.00;;;25.70;99.90;;;;;;7377552;19;20153;-74
2023/07/24 10:32:51;;;;;;;0.00;0.00;;;25.70;99.90;;;;;;7379287;19;20178;-75
2023/07/24 10:35:22;;;;;;;0.00;0.00;;;25.90;99.90;;;;;;7380838;19;20140;-74
2023/07/24 10:38:01;;;;;;;0.00;0.00;;;26.10;99.90;;;;;;7382472;19;20162;-75
2023/07/24 10:40:30;;;;;;;0.00;0.00;;;26.40;99.90;;;;;;7377891;19;20518;-74
2023/07/24 10:43:03;;;;;;;0.00;0.00;;;26.60;99.90;;;;;;7381691;19;20524;-75
2023/07/24 10:45:42;;;;;;;0.00;0.00;;;26.80;99.90;;;;;;7377885;19;20653;-74
2023/07/24 10:48:15;;;;;;;0.00;0.00;;;27.00;99.90;;;;;;7378737;19;20182;-75
2023/07/24 10:50:46;;;;;;;0.00;0.00;;;27.20;99.90;;;;;;7380007;19;20137;-75
2023/07/24 10:53:17;;;;;;;0.00;0.00;;;27.40;99.90;;;;;;7379475;19;20153;-75
2023/07/24 10:55:47;;;;;;;0.00;0.00;;;27.50;99.90;;;;;;7381092;19;20216;-75
2023/07/24 10:58:16;;;;;;;0.00;0.00;;;27.60;99.90;;;;;;7378836;19;20148;-75
2023/07/24 11:00:47;;;;;;;0.00;0.00;;;27.70;99.90;;;;;;7379893;19;20143;-74
2023/07/24 11:03:19;;;;;;;0.00;0.00;;;27.80;99.90;;;;;;7378656;19;20149;-75
2023/07/24 11:05:49;;;;;;;0.00;0.00;;;27.90;99.90;;;;;;7380519;19;20144;-75
2023/07/24 11:08:20;;;;;;;0.00;0.00;;;28.00;99.90;;;;;;7379632;19;20165;-74
2023/07/24 11:10:49;;;;;;;0.00;0.00;;;28.00;99.90;;;;;;7379412;19;20156;-75
2023/07/24 11:13:18;;;;;;;0.00;0.00;;;28.00;99.90;;;;;;7377238;19;20184;-74
2023/07/24 11:15:49;;;;;;;0.00;0.00;;;27.80;99.90;;;;;;7378171;19;20156;-75
2023/07/24 11:18:21;;;;;;;0.00;0.00;;;27.60;99.90;;;;;;7378382;19;20177;-75
2023/07/24 11:20:52;;;;;;;0.00;0.00;;;27.50;99.90;;;;;;7377887;19;20160;-76
2023/07/24 11:23:21;;;;;;;0.00;0.00;;;27.50;99.90;;;;;;7378848;19;20144;-75
2023/07/24 11:25:54;;;;;;;0.00;0.00;;;27.60;99.90;;;;;;7379846;19;20163;-75
2023/07/24 11:28:23;;;;;;;0.00;0.00;;;27.80;99.90;;;;;;7379180;19;20125;-75
2023/07/24 11:30:52;;;;;;;0.00;0.00;;;27.90;99.90;;;;;;7378566;19;20145;-75
2023/07/24 11:33:23;;;;;;;0.00;0.00;;;28.00;99.90;;;;;;7376733;19;20201;-75
2023/07/24 11:35:52;;;;;;;0.00;0.00;;;28.10;99.90;;;;;;7376995;19;20183;-74
2023/07/24 11:38:21;;;;;;;0.00;0.00;;;28.20;99.90;;;;;;7379166;19;20148;-74
2023/07/24 11:40:50;;;;;;;0.00;0.00;;;28.30;99.90;;;;;;7376666;19;20156;-75
2023/07/24 11:43:19;;;;;;;0.00;0.00;;;28.30;99.90;;;;;;7378114;19;20182;-73
2023/07/24 11:45:51;;;;;;;0.00;0.00;;;28.50;99.90;;;;;;7377830;19;20145;-75
2023/07/24 11:48:24;;;;;;;0.00;0.00;;;28.60;99.90;;;;;;7379377;19;20140;-70
2023/07/24 11:50:54;;;;;;;0.00;0.00;;;28.50;99.90;;;;;;7379186;19;20204;-72
2023/07/24 11:53:24;;;;;;;0.00;0.00;;;28.30;99.90;;;;;;7379243;19;20516;-71
2023/07/24 11:55:54;;;;;;;0.00;0.00;;;28.10;99.90;;;;;;7378805;19;20152;-72
2023/07/24 11:58:23;;;;;;;0.00;0.00;;;28.00;99.90;;;;;;7378871;19;20530;-74
2023/07/24 12:00:53;;;;;;;0.00;0.00;;;27.90;99.90;;;;;;7379744;19;20136;-75
2023/07/24 12:03:27;;;;;;;0.00;0.00;;;27.80;99.90;;;;;;7383626;19;20188;-74
2023/07/24 12:05:56;;;;;;;0.00;0.00;;;27.80;99.90;;;;;;7385726;19;20144;-75
2023/07/24 12:08:33;;;;;;;0.00;0.00;;;27.80;99.90;;;;;;7383706;19;20153;-74
2023/07/24 12:11:02;;;;;;;0.00;0.00;;;27.80;99.90;;;;;;7383474;19;20148;-75
2023/07/24 12:13:32;;;;;;;0.00;0.00;;;27.90;99.90;;;;;;7381926;19;20180;-75
2023/07/24 12:16:00;;;;;;;0.00;0.00;;;28.10;99.90;;;;;;7385901;19;20161;-74
2023/07/24 12:18:31;;;;;;;0.00;0.00;;;28.20;99.90;;;;;;7385789;19;20145;-74
2023/07/24 12:21:00;;;;;;;0.00;0.00;;;28.30;99.90;;;;;;7386088;19;20141;-75
2023/07/24 12:23:29;;;;;;;0.00;0.00;;;28.50;99.90;;;;;;7380922;19;20191;-75
2023/07/24 12:25:57;;;;;;;0.00;0.00;;;28.60;99.90;;;;;;7384494;19;20153;-75
2023/07/24 12:28:26;;;;;;;0.00;0.00;;;28.80;99.90;;;;;;7384747;19;20137;-75
2023/07/24 12:30:55;;;;;;;0.00;0.00;;;28.80;99.90;;;;;;7384803;19;20137;-74
2023/07/24 12:33:24;;;;;;;0.00;0.00;;;28.70;99.90;;;;;;7383349;19;20160;-75
2023/07/24 12:35:56;;;;;;;0.00;0.00;;;28.70;99.90;;;;;;7375251;19;20145;-76
2023/07/24 12:38:24;;;;;;;0.00;0.00;;;28.50;99.90;;;;;;7381225;19;20171;-74
2023/07/24 12:40:53;;;;;;;0.00;0.00;;;28.40;99.90;;;;;;7377336;19;20174;-76
2023/07/24 12:43:22;;;;;;;0.00;0.00;;;28.30;99.90;;;;;;7378230;19;20220;-76
2023/07/24 12:45:50;;;;;;;0.00;0.00;;;28.20;99.90;;;;;;7383455;19;20149;-77
2023/07/24 12:48:19;;;;;;;0.00;0.00;;;28.00;99.90;;;;;;7380581;19;20153;-77
2023/07/24 12:50:48;;;;;;;0.00;0.00;;;27.90;99.90;;;;;;7382393;19;20157;-78
2023/07/24 12:53:20;;;;;;;0.00;0.00;;;27.80;99.90;;;;;;7384106;19;20236;-77
2023/07/24 12:55:48;;;;;;;0.00;0.00;;;27.80;99.90;;;;;;7384457;19;20157;-77
2023/07/24 12:58:17;;;;;;;0.00;0.00;;;27.80;99.90;;;;;;7384339;19;20149;-77
2023/07/24 13:00:46;;;;;;;0.00;0.00;;;27.80;99.90;;;;;;7383987;19;20177;-76
2023/07/24 13:03:16;;;;;;;0.00;0.00;;;;;;;;;;7384715;19;20176;-79
2023/07/24 13:05:45;;;;;;;0.00;0.00;;;27.70;99.90;;;;;;7386061;19;20153;-78